Orchid Ace — 7JDE — position and weather

sailwx.info

Track history (hours):
 
Tides and Currents Weather Stations Pressure Air Temp Water Temp Dewpoint Dewpoint Depression Visibility Wind Speed Wind Dir Waves Ship Positions

Orchid Ace

Last reported at 2014-Oct-01 06:33 UTC. Time now 2014-Oct-02 14:38 UTC.
Position S 34°45' W 057°40'.

Length 200 m; draft 8 m.

Type: Cargo ship. MMSI: 432651000.

Date/timePositionNaut miles runAvg speedWind from/ knotsBaromVisibWave heightAir tempDewpointWater temp
2014-Oct-01 06:33S 34°45' W 057°40'9 9.3
2014-Oct-01 05:33S 34°45' W 057°51'1010.4
2014-Oct-01 04:33S 34°40' W 058°02'8 8.3
2014-Oct-01 03:33S 34°37' W 058°12'8 8.3
2014-Oct-01 02:33S 34°32' W 058°20'9 8.6
2014-Oct-01 01:32S 34°25' W 058°26'36 1.7
2014-Sep-30 04:33S 34°04' W 059°02'0 0.0
2014-Sep-30 03:33S 34°04' W 059°02'0 0.0
2014-Sep-30 00:09S 34°04' W 059°02'0 0.0
2014-Sep-29 23:30S 34°04' W 059°02'0 0.0
2014-Sep-29 21:18S 34°04' W 059°02'0 0.0
2014-Sep-29 20:24S 34°04' W 059°02'0 0.3
2014-Sep-29 19:33S 34°04' W 059°02'6 6.4
2014-Sep-29 18:33S 34°09' W 058°56'11 9.1
2014-Sep-29 17:21S 34°14' W 058°45'1410.4
2014-Sep-29 16:03S 34°19' W 058°30'5 9.7
2014-Sep-29 15:32S 34°24' W 058°27'1110.9
2014-Sep-29 14:31S 34°33' W 058°19'1111.9
2014-Sep-29 13:33S 34°38' W 058°07'1414.1
2014-Sep-29 12:33S 34°43' W 057°51'0 0.5
2014-Sep-29 11:34S 34°43' W 057°50'0 0.1
2014-Sep-29 10:33S 34°43' W 057°50'8 8.2
2014-Sep-29 09:33S 34°45' W 057°40'3112.8
2014-Sep-29 07:08S 35°02' W 057°10'4812.2
2014-Sep-29 03:13S 35°09' W 056°12'  
2014-Sep-26 16:16S 27°42' W 048°16'24117.5
2014-Sep-26 02:32S 24°04' W 046°22'8 8.2
2014-Sep-26 01:33S 23°57' W 046°18'2 0.4
2014-Sep-25 19:24S 23°55' W 046°20'0 0.0
2014-Sep-25 18:30S 23°55' W 046°20'0 0.0
2014-Sep-25 17:18S 23°55' W 046°20'0 0.0
2014-Sep-25 16:33S 23°55' W 046°20'0 0.0
2014-Sep-25 12:18S 23°55' W 046°20'4 5.1
2014-Sep-25 11:33S 23°58' W 046°18'5 4.9
2014-Sep-25 10:33S 24°02' W 046°21'2 2.1
2014-Sep-25 09:33S 24°04' W 046°21'8 7.5
2014-Sep-25 08:29S 24°11' W 046°26'  
Track history (hours):
 
Tides and Currents Weather Stations Pressure Air Temp Water Temp Dewpoint Dewpoint Depression Visibility Wind Speed Wind Dir Waves Ship Positions

Orchid Ace

Last reported at 2014-Oct-01 06:33 UTC. Time now 2014-Oct-02 14:38 UTC.
Position S 34°45' W 057°40'.

Length 200 m; draft 8 m.

Type: Cargo ship. MMSI: 432651000.

Date/timePositionNaut miles runAvg speedWind from/ knotsBaromVisibWave heightAir tempDewpointWater temp
2014-Oct-01 06:33S 34°45' W 057°40'9 9.3
2014-Oct-01 05:33S 34°45' W 057°51'1010.4
2014-Oct-01 04:33S 34°40' W 058°02'8 8.3
2014-Oct-01 03:33S 34°37' W 058°12'8 8.3
2014-Oct-01 02:33S 34°32' W 058°20'9 8.6
2014-Oct-01 01:32S 34°25' W 058°26'36 1.7
2014-Sep-30 04:33S 34°04' W 059°02'0 0.0
2014-Sep-30 03:33S 34°04' W 059°02'0 0.0
2014-Sep-30 00:09S 34°04' W 059°02'0 0.0
2014-Sep-29 23:30S 34°04' W 059°02'0 0.0
2014-Sep-29 21:18S 34°04' W 059°02'0 0.0
2014-Sep-29 20:24S 34°04' W 059°02'0 0.3
2014-Sep-29 19:33S 34°04' W 059°02'6 6.4
2014-Sep-29 18:33S 34°09' W 058°56'11 9.1
2014-Sep-29 17:21S 34°14' W 058°45'1410.4
2014-Sep-29 16:03S 34°19' W 058°30'5 9.7
2014-Sep-29 15:32S 34°24' W 058°27'1110.9
2014-Sep-29 14:31S 34°33' W 058°19'1111.9
2014-Sep-29 13:33S 34°38' W 058°07'1414.1
2014-Sep-29 12:33S 34°43' W 057°51'0 0.5
2014-Sep-29 11:34S 34°43' W 057°50'0 0.1
2014-Sep-29 10:33S 34°43' W 057°50'8 8.2
2014-Sep-29 09:33S 34°45' W 057°40'3112.8
2014-Sep-29 07:08S 35°02' W 057°10'4812.2
2014-Sep-29 03:13S 35°09' W 056°12'  
2014-Sep-26 16:16S 27°42' W 048°16'24117.5
2014-Sep-26 02:32S 24°04' W 046°22'8 8.2
2014-Sep-26 01:33S 23°57' W 046°18'2 0.4
2014-Sep-25 19:24S 23°55' W 046°20'0 0.0
2014-Sep-25 18:30S 23°55' W 046°20'0 0.0
2014-Sep-25 17:18S 23°55' W 046°20'0 0.0
2014-Sep-25 16:33S 23°55' W 046°20'0 0.0
2014-Sep-25 12:18S 23°55' W 046°20'4 5.1
2014-Sep-25 11:33S 23°58' W 046°18'5 4.9
2014-Sep-25 10:33S 24°02' W 046°21'2 2.1
2014-Sep-25 09:33S 24°04' W 046°21'8 7.5
2014-Sep-25 08:29S 24°11' W 046°26'  

Dump ship's entire track history